Time;durP1;ratioP1;P1;durP2;ratioP2;P2;SDS_P1;SDS_P2;PMS_P1;PMS_P2;Temp;Humidity;BMP_temperature;BMP_pressure;BME280_temperature;BME280_humidity;BME280_pressure;Samples;Min_cycle;Max_cycle;Signal;HPM_P1;HPM_P2
2022/01/29 00:00:54;;;;;;;1.60;1.30;;;6.10;98.20;;;;;;4957739;28;20469;-76
2022/01/29 00:03:22;;;;;;;1.70;1.53;;;6.10;98.20;;;;;;4965445;28;20857;-78
2022/01/29 00:05:49;;;;;;;1.60;1.20;;;6.10;98.20;;;;;;4961681;28;20544;-78
2022/01/29 00:08:17;;;;;;;1.60;1.30;;;6.10;98.20;;;;;;4953208;28;20756;-79
2022/01/29 00:10:46;;;;;;;1.70;1.40;;;6.20;98.20;;;;;;4970179;28;20469;-79
2022/01/29 00:13:13;;;;;;;1.60;1.20;;;6.20;98.20;;;;;;4941302;29;20478;-78
2022/01/29 00:15:41;;;;;;;1.63;1.40;;;6.20;98.20;;;;;;4970159;28;20877;-77
2022/01/29 00:18:08;;;;;;;1.60;1.30;;;6.20;98.20;;;;;;4950293;28;20905;-78
2022/01/29 00:20:35;;;;;;;1.60;1.30;;;6.20;98.20;;;;;;5008506;23;20492;-76
2022/01/29 00:23:02;;;;;;;1.70;1.40;;;6.20;98.20;;;;;;5015872;28;21019;-77
2022/01/29 00:25:29;;;;;;;1.67;1.40;;;6.30;98.20;;;;;;5011426;28;20839;-77
2022/01/29 00:27:57;;;;;;;1.60;1.30;;;6.30;98.20;;;;;;5008350;28;20486;-76
2022/01/29 00:30:30;;;;;;;1.60;1.20;;;6.30;98.20;;;;;;5010598;28;20600;-76
2022/01/29 00:32:58;;;;;;;1.70;1.40;;;6.30;98.20;;;;;;5000855;28;20484;-76
2022/01/29 00:35:25;;;;;;;1.60;1.30;;;6.30;98.20;;;;;;5011332;28;21021;-77
2022/01/29 00:37:51;;;;;;;1.67;1.33;;;6.30;98.20;;;;;;4997733;28;20763;-77
2022/01/29 00:40:20;;;;;;;1.60;1.30;;;6.30;98.20;;;;;;5011963;28;20564;-73
2022/01/29 00:42:48;;;;;;;2.63;2.43;;;6.40;98.20;;;;;;4999665;28;20487;-74
2022/01/29 00:45:14;;;;;;;1.60;1.27;;;6.40;98.20;;;;;;5005168;28;20803;-74
2022/01/29 00:47:41;;;;;;;1.67;1.40;;;6.40;98.20;;;;;;4998018;28;20484;-75
2022/01/29 00:50:11;;;;;;;1.67;1.37;;;6.40;98.20;;;;;;5009263;28;20484;-73
2022/01/29 00:52:38;;;;;;;2.03;1.83;;;6.40;98.20;;;;;;4995971;28;20523;-75
2022/01/29 00:55:06;;;;;;;1.67;1.40;;;6.40;98.20;;;;;;5009346;28;20487;-75
2022/01/29 00:57:33;;;;;;;1.60;1.30;;;6.40;98.20;;;;;;4998500;28;20497;-75
2022/01/29 01:00:00;;;;;;;1.60;1.30;;;6.50;98.20;;;;;;5009971;28;20499;-74
2022/01/29 01:02:27;;;;;;;1.60;1.20;;;6.50;98.20;;;;;;4995599;28;20578;-73
2022/01/29 01:04:54;;;;;;;3.30;3.10;;;6.50;98.20;;;;;;5009548;28;20471;-74
2022/01/29 01:07:22;;;;;;;1.63;1.30;;;6.50;98.20;;;;;;5012362;28;20487;-74
2022/01/29 01:09:49;;;;;;;1.60;1.30;;;6.50;98.20;;;;;;5011159;28;20506;-74
2022/01/29 01:12:15;;;;;;;1.97;1.77;;;6.50;98.20;;;;;;4996409;28;20612;-74
2022/01/29 01:14:42;;;;;;;1.60;1.30;;;6.50;98.20;;;;;;5002819;28;20487;-74
2022/01/29 01:17:09;;;;;;;1.70;1.40;;;6.50;98.20;;;;;;4997611;28;20492;-74
2022/01/29 01:19:36;;;;;;;1.60;1.30;;;6.50;98.20;;;;;;5007496;28;20487;-73
2022/01/29 01:22:04;;;;;;;1.70;1.40;;;6.50;98.20;;;;;;5008590;28;20502;-73
2022/01/29 01:24:32;;;;;;;1.60;1.30;;;6.50;98.20;;;;;;5013709;28;20460;-73
2022/01/29 01:26:59;;;;;;;1.60;1.30;;;6.50;98.20;;;;;;4998896;28;20488;-74
2022/01/29 01:29:26;;;;;;;1.60;1.20;;;6.60;98.20;;;;;;5008333;28;20491;-73
2022/01/29 01:31:53;;;;;;;1.60;1.40;;;6.50;98.20;;;;;;4998147;28;20574;-73
2022/01/29 01:34:22;;;;;;;1.60;1.20;;;6.60;98.20;;;;;;5009913;28;20503;-74
2022/01/29 01:36:53;;;;;;;1.60;1.30;;;6.60;98.20;;;;;;5007658;28;20541;-74
2022/01/29 01:39:24;;;;;;;1.70;1.50;;;6.60;98.20;;;;;;5016025;28;20569;-73
2022/01/29 01:41:56;;;;;;;1.60;1.30;;;6.60;98.20;;;;;;4996828;28;20510;-74
2022/01/29 01:44:23;;;;;;;1.60;1.30;;;6.60;98.20;;;;;;5007308;28;20826;-73
2022/01/29 01:46:50;;;;;;;1.70;1.50;;;6.60;98.20;;;;;;4997803;28;20483;-74
2022/01/29 01:49:19;;;;;;;1.60;1.20;;;6.60;98.20;;;;;;5007885;28;20480;-74
2022/01/29 01:51:45;;;;;;;1.70;1.57;;;6.60;98.20;;;;;;4997226;28;20488;-74
2022/01/29 01:54:12;;;;;;;1.60;1.33;;;6.70;98.20;;;;;;5006047;28;20471;-73
2022/01/29 01:56:39;;;;;;;1.63;1.37;;;6.70;98.20;;;;;;5006346;28;21017;-75
2022/01/29 01:59:07;;;;;;;1.60;1.30;;;6.70;98.20;;;;;;5021126;28;20491;-75
2022/01/29 02:01:34;;;;;;;1.60;1.30;;;6.70;98.20;;;;;;4998778;28;20493;-77
2022/01/29 02:04:01;;;;;;;1.60;1.30;;;6.70;98.20;;;;;;5010243;28;20494;-78
2022/01/29 02:06:28;;;;;;;1.60;1.20;;;6.70;98.20;;;;;;5000737;28;20476;-76
2022/01/29 02:08:58;;;;;;;1.97;1.77;;;6.70;98.20;;;;;;5010441;28;20516;-77
2022/01/29 02:11:25;;;;;;;1.60;1.30;;;6.70;98.20;;;;;;4996740;28;20480;-76
2022/01/29 02:13:53;;;;;;;1.70;1.20;;;6.70;98.20;;;;;;5009694;28;20460;-76
2022/01/29 02:16:21;;;;;;;1.70;1.30;;;6.70;98.20;;;;;;4996529;28;20564;-76
2022/01/29 02:18:48;;;;;;;1.60;1.20;;;6.70;98.20;;;;;;5007705;28;20492;-75
2022/01/29 02:21:17;;;;;;;2.23;2.03;;;6.70;98.20;;;;;;4989434;28;20482;-76
2022/01/29 02:23:45;;;;;;;1.60;1.30;;;6.70;98.20;;;;;;5019518;28;20463;-76
2022/01/29 02:26:11;;;;;;;1.60;1.30;;;6.70;98.20;;;;;;4995908;28;20484;-77
2022/01/29 02:28:38;;;;;;;1.60;1.20;;;6.70;98.20;;;;;;5009356;28;20959;-75
2022/01/29 02:31:05;;;;;;;1.60;1.30;;;6.70;98.20;;;;;;4998813;28;21015;-77
2022/01/29 02:33:38;;;;;;;1.60;1.30;;;6.70;98.20;;;;;;5010133;28;20507;-75
2022/01/29 02:36:05;;;;;;;1.60;1.30;;;6.70;98.20;;;;;;4999721;28;20503;-77
2022/01/29 02:38:33;;;;;;;2.90;2.33;;;6.80;98.20;;;;;;5008319;28;21337;-77
2022/01/29 02:41:03;;;;;;;1.60;1.20;;;6.80;98.20;;;;;;4999545;28;20471;-76
2022/01/29 02:43:34;;;;;;;2.37;2.17;;;6.80;98.20;;;;;;5023894;28;20467;-74
2022/01/29 02:46:07;;;;;;;1.60;1.23;;;6.80;98.20;;;;;;4997212;28;20548;-77
2022/01/29 02:48:35;;;;;;;1.60;1.20;;;6.80;98.20;;;;;;5009916;28;20495;-75
2022/01/29 02:51:01;;;;;;;1.60;1.30;;;6.80;98.20;;;;;;4997079;28;20972;-75
2022/01/29 02:53:30;;;;;;;1.60;1.30;;;6.80;98.20;;;;;;5006824;28;21073;-75
2022/01/29 02:55:56;;;;;;;1.63;1.30;;;6.80;98.20;;;;;;4998378;28;20872;-76
2022/01/29 02:58:24;;;;;;;1.60;1.30;;;6.80;98.20;;;;;;5008719;28;20975;-76
2022/01/29 03:00:51;;;;;;;1.70;1.30;;;6.80;98.20;;;;;;4999017;28;20468;-74
2022/01/29 03:03:18;;;;;;;2.00;1.80;;;6.80;98.20;;;;;;5008794;28;20469;-76
2022/01/29 03:05:45;;;;;;;1.67;1.40;;;6.80;98.20;;;;;;5009659;28;20966;-77
2022/01/29 03:08:12;;;;;;;1.60;1.30;;;6.80;98.20;;;;;;5014831;28;20863;-77
2022/01/29 03:10:39;;;;;;;1.60;1.30;;;6.80;98.20;;;;;;5008659;28;20495;-77
2022/01/29 03:13:06;;;;;;;1.60;1.30;;;6.80;98.20;;;;;;4997667;28;21007;-75
2022/01/29 03:15:34;;;;;;;6.03;4.23;;;6.80;98.20;;;;;;5004673;28;20496;-76
2022/01/29 03:18:01;;;;;;;1.60;1.30;;;6.80;98.20;;;;;;5013062;28;21152;-76
2022/01/29 03:20:30;;;;;;;1.63;1.30;;;6.80;98.20;;;;;;5007194;28;20503;-76
2022/01/29 03:22:57;;;;;;;1.67;1.37;;;6.80;98.20;;;;;;5014204;28;20575;-77
2022/01/29 03:25:24;;;;;;;1.63;1.30;;;6.80;98.20;;;;;;5007924;28;20468;-77
2022/01/29 03:27:51;;;;;;;1.60;1.30;;;6.80;98.20;;;;;;5013965;28;20479;-76
2022/01/29 03:30:18;;;;;;;1.63;1.30;;;6.80;98.20;;;;;;5010455;28;20488;-78
2022/01/29 03:32:46;;;;;;;1.60;1.30;;;6.80;98.20;;;;;;5017322;28;20501;-76
2022/01/29 03:35:13;;;;;;;1.60;1.30;;;6.80;98.20;;;;;;5014966;28;20488;-78
2022/01/29 03:37:40;;;;;;;1.60;1.30;;;6.80;98.20;;;;;;5019331;28;20491;-77
2022/01/29 03:40:08;;;;;;;1.67;1.30;;;6.80;98.20;;;;;;5014844;28;20487;-79
2022/01/29 03:42:41;;;;;;;1.60;1.30;;;6.80;98.20;;;;;;5002750;28;20936;-75
2022/01/29 03:45:09;;;;;;;2.27;2.07;;;6.80;98.20;;;;;;5013554;28;20462;-76
2022/01/29 03:47:36;;;;;;;1.60;1.20;;;6.80;98.20;;;;;;5017074;28;20574;-77
2022/01/29 03:50:05;;;;;;;1.67;1.30;;;6.80;98.20;;;;;;5014819;28;20483;-77
2022/01/29 03:52:32;;;;;;;1.70;1.23;;;6.80;98.20;;;;;;5015768;28;20479;-75
2022/01/29 03:54:59;;;;;;;1.60;1.30;;;6.80;98.20;;;;;;5011365;28;20467;-79
2022/01/29 03:57:26;;;;;;;1.60;1.30;;;6.80;98.20;;;;;;5002003;28;20488;-76
2022/01/29 03:59:53;;;;;;;1.60;1.30;;;6.80;98.20;;;;;;5013655;28;20484;-75
2022/01/29 04:02:20;;;;;;;1.60;1.20;;;6.80;98.20;;;;;;5003215;28;20499;-77
2022/01/29 04:04:47;;;;;;;1.60;1.23;;;6.80;98.20;;;;;;5014055;28;20464;-74
2022/01/29 04:07:15;;;;;;;1.60;1.30;;;6.80;98.20;;;;;;5001782;28;20526;-76
2022/01/29 04:09:47;;;;;;;1.60;1.30;;;6.80;98.20;;;;;;5012568;28;20551;-76
2022/01/29 04:12:14;;;;;;;2.67;2.47;;;6.80;98.20;;;;;;5000809;28;21020;-77
2022/01/29 04:14:41;;;;;;;1.60;1.30;;;6.80;98.20;;;;;;5012830;28;21021;-76
2022/01/29 04:17:08;;;;;;;1.60;1.20;;;6.80;98.20;;;;;;4998743;28;20514;-76
2022/01/29 04:19:36;;;;;;;1.63;1.30;;;6.80;98.20;;;;;;5010819;28;20495;-73
2022/01/29 04:22:03;;;;;;;1.60;1.30;;;6.80;98.20;;;;;;5002340;28;20569;-75
2022/01/29 04:24:31;;;;;;;1.70;1.50;;;6.80;98.20;;;;;;5008785;28;20953;-76
2022/01/29 04:26:59;;;;;;;1.60;1.20;;;6.80;98.20;;;;;;4992603;28;21087;-77
2022/01/29 04:29:28;;;;;;;1.60;1.30;;;6.80;98.20;;;;;;5012045;28;20484;-75
2022/01/29 04:32:06;;;;;;;1.70;1.30;;;6.80;98.20;;;;;;5009988;28;20482;-75
2022/01/29 04:34:33;;;;;;;1.60;1.23;;;6.80;98.20;;;;;;5016847;28;20947;-74
2022/01/29 04:37:00;;;;;;;1.60;1.30;;;6.80;98.20;;;;;;4999925;28;20491;-74
2022/01/29 04:39:26;;;;;;;1.60;1.20;;;6.80;98.20;;;;;;5007759;28;20522;-77
2022/01/29 04:41:55;;;;;;;1.60;1.20;;;6.80;98.20;;;;;;4998533;28;20495;-76
2022/01/29 04:44:21;;;;;;;1.60;1.30;;;6.80;98.20;;;;;;5005275;28;20492;-75
2022/01/29 04:46:48;;;;;;;1.60;1.20;;;6.80;98.20;;;;;;5000293;28;20492;-76
2022/01/29 04:49:15;;;;;;;1.60;1.20;;;6.70;98.20;;;;;;5011440;28;20479;-74
2022/01/29 04:51:42;;;;;;;2.23;2.03;;;6.70;98.20;;;;;;5002216;28;20539;-76
2022/01/29 04:54:08;;;;;;;1.60;1.23;;;6.70;98.20;;;;;;5007946;28;20475;-77
2022/01/29 04:56:35;;;;;;;1.60;1.30;;;6.70;98.20;;;;;;4999328;28;20894;-74
2022/01/29 04:59:04;;;;;;;1.70;1.30;;;6.70;98.20;;;;;;5012836;28;20511;-78
2022/01/29 05:01:31;;;;;;;1.60;1.30;;;6.70;98.20;;;;;;5002421;28;20480;-73
2022/01/29 05:03:57;;;;;;;1.63;1.33;;;6.70;98.20;;;;;;5008963;28;20463;-78
2022/01/29 05:06:24;;;;;;;1.60;1.30;;;6.70;98.20;;;;;;4998674;28;20484;-77
2022/01/29 05:08:51;;;;;;;1.60;1.30;;;6.70;98.20;;;;;;5009997;28;20484;-76
2022/01/29 05:11:18;;;;;;;1.60;1.30;;;6.70;98.20;;;;;;5001241;28;20480;-77
2022/01/29 05:13:45;;;;;;;1.70;1.43;;;6.70;98.20;;;;;;5012339;28;20468;-75
2022/01/29 05:27:08;;;;;;;1.67;1.40;;;6.70;98.20;;;;;;4999252;28;20587;-74
2022/01/29 05:29:36;;;;;;;1.63;1.30;;;6.70;98.20;;;;;;5009170;28;21014;-77
2022/01/29 05:32:06;;;;;;;1.70;1.50;;;6.70;98.20;;;;;;4998460;28;21111;-74
2022/01/29 05:34:34;;;;;;;1.60;1.30;;;6.70;98.20;;;;;;5010119;28;20948;-75
2022/01/29 05:37:02;;;;;;;1.60;1.30;;;6.70;98.20;;;;;;4998183;28;20583;-73
2022/01/29 05:39:29;;;;;;;1.60;1.20;;;6.70;98.20;;;;;;5009805;28;20488;-76
2022/01/29 05:41:56;;;;;;;1.60;1.20;;;6.70;98.20;;;;;;5009224;28;20483;-75
2022/01/29 05:44:23;;;;;;;1.63;1.30;;;6.70;98.20;;;;;;5012984;28;20534;-76
2022/01/29 05:46:50;;;;;;;1.60;1.30;;;6.70;98.20;;;;;;5008209;28;20526;-77
2022/01/29 05:49:18;;;;;;;1.70;1.33;;;6.80;98.20;;;;;;5017706;28;20484;-76
2022/01/29 05:51:45;;;;;;;1.60;1.30;;;6.80;98.20;;;;;;5008749;28;20474;-75
2022/01/29 05:54:11;;;;;;;1.70;1.40;;;6.80;98.20;;;;;;5013541;28;20469;-75
2022/01/29 05:56:38;;;;;;;1.60;1.30;;;6.80;98.20;;;;;;4999416;28;21011;-74
2022/01/29 05:59:05;;;;;;;1.70;1.20;;;6.80;98.20;;;;;;5009759;28;20506;-73
2022/01/29 06:01:32;;;;;;;1.63;1.30;;;6.80;98.20;;;;;;4998873;28;20495;-74
2022/01/29 06:03:59;;;;;;;1.70;1.40;;;6.80;98.20;;;;;;5009601;28;20556;-75
2022/01/29 06:06:27;;;;;;;1.63;1.30;;;6.80;98.20;;;;;;5005824;28;20610;-75
2022/01/29 06:08:54;;;;;;;1.60;1.20;;;6.80;98.20;;;;;;5019694;28;20491;-75
2022/01/29 06:11:21;;;;;;;1.60;1.30;;;6.90;98.20;;;;;;5004114;28;20486;-76
2022/01/29 06:13:48;;;;;;;1.67;1.30;;;6.90;98.20;;;;;;5021461;28;20934;-73
2022/01/29 06:16:15;;;;;;;1.60;1.20;;;6.90;98.20;;;;;;4997323;28;20479;-74
2022/01/29 06:18:41;;;;;;;1.60;1.20;;;6.90;98.20;;;;;;5006365;28;21094;-77
2022/01/29 06:21:10;;;;;;;1.60;1.20;;;6.90;98.20;;;;;;4997139;28;20498;-77
2022/01/29 06:23:38;;;;;;;1.60;1.23;;;6.90;98.20;;;;;;5018705;28;20550;-75
2022/01/29 06:26:07;;;;;;;1.60;1.20;;;6.90;98.20;;;;;;4998160;28;20470;-74
2022/01/29 06:28:34;;;;;;;1.60;1.30;;;6.90;98.20;;;;;;5014064;23;20596;-72
2022/01/29 06:31:02;;;;;;;1.60;1.30;;;7.00;98.20;;;;;;4959254;28;20480;-72
2022/01/29 06:33:29;;;;;;;1.60;1.30;;;7.00;98.20;;;;;;4979308;28;20848;-72
2022/01/29 06:35:55;;;;;;;1.60;1.30;;;7.00;98.20;;;;;;4959128;28;20852;-72
2022/01/29 06:38:23;;;;;;;1.60;1.20;;;7.00;98.20;;;;;;4970204;28;20493;-72
2022/01/29 06:40:52;;;;;;;1.70;1.33;;;7.10;98.20;;;;;;4953310;28;20597;-72
2022/01/29 06:43:19;;;;;;;1.70;1.40;;;7.10;98.20;;;;;;4978511;28;21013;-72
2022/01/29 06:45:46;;;;;;;1.60;1.23;;;7.10;98.20;;;;;;4953822;28;20462;-72
2022/01/29 06:48:14;;;;;;;1.60;1.30;;;7.10;98.20;;;;;;4957671;28;20490;-72
2022/01/29 06:50:42;;;;;;;1.60;1.40;;;7.10;98.20;;;;;;4950803;28;20545;-72
2022/01/29 06:53:08;;;;;;;1.67;1.30;;;7.10;98.20;;;;;;4953435;28;20485;-73
2022/01/29 06:55:35;;;;;;;1.60;1.30;;;7.10;98.20;;;;;;4945831;29;20469;-72
2022/01/29 06:58:04;;;;;;;2.03;1.83;;;7.20;98.20;;;;;;4940007;28;20498;-72
2022/01/29 07:00:31;;;;;;;1.60;1.30;;;7.20;98.20;;;;;;4949870;29;20478;-72
2022/01/29 07:02:58;;;;;;;1.60;1.20;;;7.20;98.20;;;;;;4954463;28;20493;-72
2022/01/29 07:05:24;;;;;;;1.60;1.30;;;7.20;98.20;;;;;;4950147;29;20515;-72
2022/01/29 07:07:51;;;;;;;1.70;1.40;;;7.20;98.20;;;;;;4953681;28;20489;-72
2022/01/29 07:10:18;;;;;;;1.70;1.30;;;7.30;98.20;;;;;;4949840;29;20471;-72
2022/01/29 07:12:45;;;;;;;1.63;1.30;;;7.30;98.20;;;;;;4954080;28;20989;-72
2022/01/29 07:15:14;;;;;;;1.67;1.30;;;7.30;98.20;;;;;;4944616;28;20998;-73
2022/01/29 07:17:41;;;;;;;1.63;1.27;;;7.30;98.20;;;;;;4939375;28;20486;-72
2022/01/29 07:20:09;;;;;;;1.67;1.30;;;7.30;98.20;;;;;;4949404;29;20557;-72
2022/01/29 07:22:35;;;;;;;1.60;1.20;;;7.40;98.20;;;;;;4941073;28;20490;-72
2022/01/29 07:25:02;;;;;;;1.67;1.30;;;7.40;98.20;;;;;;4943553;28;20467;-73
2022/01/29 07:27:29;;;;;;;1.67;1.33;;;7.40;98.20;;;;;;4935639;28;20494;-72
2022/01/29 07:29:56;;;;;;;1.60;1.30;;;7.40;98.20;;;;;;4949477;29;20463;-72
2022/01/29 07:32:24;;;;;;;1.60;1.20;;;7.40;98.20;;;;;;4947382;28;20497;-72
2022/01/29 07:34:50;;;;;;;1.70;1.30;;;7.40;98.20;;;;;;4952710;28;20470;-71
2022/01/29 07:37:17;;;;;;;1.60;1.30;;;7.50;98.20;;;;;;4949573;28;20490;-72
2022/01/29 07:39:45;;;;;;;1.70;1.40;;;7.50;98.20;;;;;;4952060;28;20462;-72
2022/01/29 07:42:12;;;;;;;1.60;1.30;;;7.50;98.20;;;;;;4947915;28;20490;-71
2022/01/29 07:44:39;;;;;;;1.67;1.30;;;7.50;98.20;;;;;;4948724;28;20466;-72
2022/01/29 07:47:06;;;;;;;1.60;1.20;;;7.60;98.20;;;;;;4938232;28;20561;-72
2022/01/29 07:49:35;;;;;;;1.60;1.30;;;7.60;98.20;;;;;;4947772;28;20947;-72
2022/01/29 07:52:01;;;;;;;1.60;1.30;;;7.60;98.20;;;;;;4939551;28;20486;-72
2022/01/29 07:54:28;;;;;;;1.70;1.40;;;7.60;98.20;;;;;;4945205;28;20471;-73
2022/01/29 07:56:55;;;;;;;2.00;1.73;;;7.60;98.20;;;;;;4949074;28;20569;-72
2022/01/29 07:59:22;;;;;;;1.60;1.20;;;7.60;98.20;;;;;;4972676;28;20513;-73
2022/01/29 08:01:49;;;;;;;1.63;1.20;;;7.60;98.20;;;;;;4964675;28;20492;-72
2022/01/29 08:04:15;;;;;;;1.67;1.30;;;7.60;98.20;;;;;;4974865;28;20462;-72
2022/01/29 08:06:43;;;;;;;1.70;1.40;;;7.70;98.20;;;;;;4962031;28;20572;-72
2022/01/29 08:09:10;;;;;;;1.60;1.27;;;7.70;98.20;;;;;;4973436;28;20496;-72
2022/01/29 08:11:37;;;;;;;1.60;1.27;;;7.70;98.20;;;;;;4961352;28;20480;-72
2022/01/29 08:14:04;;;;;;;1.60;1.20;;;7.70;98.20;;;;;;4974162;28;21009;-71
2022/01/29 08:16:30;;;;;;;1.70;1.37;;;7.70;98.20;;;;;;4953231;28;21003;-73
2022/01/29 08:19:00;;;;;;;1.70;1.50;;;7.80;98.20;;;;;;4972230;28;21049;-72
2022/01/29 08:21:27;;;;;;;1.60;1.30;;;7.80;98.20;;;;;;4958171;28;20560;-72
2022/01/29 08:23:55;;;;;;;1.60;1.20;;;7.80;98.20;;;;;;4977328;28;20867;-72
2022/01/29 08:26:22;;;;;;;1.67;1.40;;;7.80;98.20;;;;;;4962642;28;20476;-72
2022/01/29 08:28:49;;;;;;;1.67;1.30;;;7.80;98.20;;;;;;4980532;28;20492;-72
2022/01/29 08:31:16;;;;;;;1.67;1.30;;;7.90;98.20;;;;;;4964072;28;20485;-72
2022/01/29 08:33:42;;;;;;;1.70;1.40;;;7.90;98.20;;;;;;4980635;28;20466;-72
2022/01/29 08:36:09;;;;;;;1.63;1.30;;;7.90;98.20;;;;;;4963670;28;20472;-72
2022/01/29 08:38:36;;;;;;;1.67;1.30;;;7.90;98.20;;;;;;4983616;28;20498;-72
2022/01/29 08:41:05;;;;;;;1.60;1.30;;;7.90;98.20;;;;;;4958490;28;20481;-73
2022/01/29 08:43:33;;;;;;;1.63;1.20;;;8.00;98.20;;;;;;4970586;28;20469;-72
2022/01/29 08:46:00;;;;;;;2.03;1.77;;;8.00;98.20;;;;;;4960580;28;20524;-72
2022/01/29 08:48:27;;;;;;;1.60;1.20;;;8.00;98.20;;;;;;4978337;28;20493;-72
2022/01/29 08:50:54;;;;;;;1.70;1.40;;;8.00;98.20;;;;;;4959221;28;20467;-72
2022/01/29 08:53:21;;;;;;;1.70;1.30;;;8.10;98.20;;;;;;4964982;28;20474;-72
2022/01/29 08:55:48;;;;;;;1.70;1.33;;;8.10;98.20;;;;;;4962578;28;20462;-73
2022/01/29 08:58:16;;;;;;;1.60;1.30;;;8.10;98.20;;;;;;4983413;28;20971;-72
2022/01/29 09:00:46;;;;;;;1.60;1.20;;;8.20;98.20;;;;;;4962102;28;20951;-72
2022/01/29 09:03:14;;;;;;;1.70;1.30;;;8.20;98.20;;;;;;4972315;28;20572;-72
2022/01/29 09:05:42;;;;;;;1.60;1.20;;;8.20;98.20;;;;;;4973486;28;20470;-72
2022/01/29 09:08:09;;;;;;;1.60;1.20;;;8.30;98.20;;;;;;4972323;28;20478;-71
2022/01/29 09:10:36;;;;;;;1.60;1.20;;;8.30;98.20;;;;;;4968298;28;20461;-72
2022/01/29 09:13:04;;;;;;;1.70;1.60;;;8.30;98.20;;;;;;4972657;28;20485;-72
2022/01/29 09:15:32;;;;;;;1.67;1.30;;;8.40;98.20;;;;;;4961350;28;20455;-72
2022/01/29 09:17:59;;;;;;;1.60;1.20;;;8.40;98.20;;;;;;4968016;28;20490;-72
2022/01/29 09:20:26;;;;;;;1.60;1.20;;;8.40;98.20;;;;;;4964205;28;21168;-72
2022/01/29 09:22:53;;;;;;;1.60;1.20;;;8.50;98.20;;;;;;4969629;28;20523;-72
2022/01/29 09:25:20;;;;;;;1.63;1.30;;;8.50;98.20;;;;;;4961920;28;20467;-73
2022/01/29 09:27:47;;;;;;;1.60;1.20;;;8.60;98.20;;;;;;4974861;28;20492;-73
2022/01/29 09:30:14;;;;;;;1.63;1.30;;;8.60;98.20;;;;;;4969848;28;20466;-73
2022/01/29 09:32:42;;;;;;;1.67;1.37;;;8.60;98.20;;;;;;4972405;28;20503;-74
2022/01/29 09:35:10;;;;;;;1.63;1.20;;;8.70;98.20;;;;;;4967002;28;20480;-72
2022/01/29 09:37:37;;;;;;;1.60;1.20;;;8.70;98.20;;;;;;4972344;28;20485;-72
2022/01/29 09:40:04;;;;;;;1.70;1.30;;;8.80;98.20;;;;;;4970548;28;20912;-72
2022/01/29 09:42:31;;;;;;;1.63;1.20;;;8.80;98.20;;;;;;4970050;28;20543;-72
2022/01/29 09:44:58;;;;;;;1.70;1.47;;;8.90;98.20;;;;;;4970278;28;20493;-72
2022/01/29 09:47:26;;;;;;;1.60;1.20;;;8.90;98.20;;;;;;4968161;28;20475;-73
2022/01/29 09:49:54;;;;;;;1.70;1.23;;;9.00;98.20;;;;;;4971399;28;20954;-73
2022/01/29 09:52:21;;;;;;;1.60;1.20;;;9.00;98.20;;;;;;4969098;28;20953;-73
2022/01/29 09:54:49;;;;;;;1.63;1.30;;;9.00;98.20;;;;;;4968047;28;20465;-73
2022/01/29 09:57:17;;;;;;;1.60;1.20;;;9.00;98.20;;;;;;4946183;28;21050;-73
2022/01/29 09:59:43;;;;;;;1.70;1.30;;;9.00;98.20;;;;;;4962864;28;20466;-73
2022/01/29 10:02:18;;;;;;;1.60;1.20;;;9.00;98.20;;;;;;4965674;28;20481;-73
2022/01/29 10:04:50;;;;;;;1.70;1.23;;;9.00;98.20;;;;;;4972648;28;20472;-73
2022/01/29 10:07:20;;;;;;;1.63;1.20;;;9.00;98.20;;;;;;4969292;28;20864;-73
2022/01/29 10:09:48;;;;;;;1.60;1.20;;;9.10;98.20;;;;;;4971012;28;20498;-73
2022/01/29 10:12:20;;;;;;;1.60;1.20;;;9.10;98.20;;;;;;4969247;28;20496;-73
2022/01/29 10:14:52;;;;;;;1.60;1.20;;;9.10;98.20;;;;;;4968741;28;20466;-73
2022/01/29 10:17:41;;;;;;;1.60;1.20;;;9.20;98.20;;;;;;4965917;28;20488;-73
2022/01/29 10:20:14;;;;;;;1.70;1.20;;;9.20;98.20;;;;;;4969232;28;20560;-73
2022/01/29 10:22:46;;;;;;;1.67;1.20;;;9.30;98.20;;;;;;4968797;28;20480;-72
2022/01/29 10:25:15;;;;;;;1.70;1.30;;;9.30;98.20;;;;;;4962297;28;20463;-72
2022/01/29 10:28:06;;;;;;;1.60;1.20;;;9.40;98.20;;;;;;4970290;28;21401;-77
2022/01/29 10:30:35;;;;;;;1.70;1.30;;;9.40;98.20;;;;;;4968561;28;20470;-73
2022/01/29 10:33:17;;;;;;;1.70;1.30;;;9.50;98.20;;;;;;4970975;28;20976;-74
2022/01/29 10:35:45;;;;;;;1.70;1.20;;;9.50;98.20;;;;;;4955622;28;20493;-72
2022/01/29 10:38:13;;;;;;;1.63;1.10;;;9.50;98.20;;;;;;4968494;28;20500;-72
2022/01/29 10:40:40;;;;;;;1.67;1.20;;;9.50;98.20;;;;;;4961234;28;20474;-72
2022/01/29 10:43:08;;;;;;;1.60;1.20;;;9.50;98.20;;;;;;4968595;28;20485;-72
2022/01/29 10:45:36;;;;;;;1.70;1.20;;;9.60;98.20;;;;;;4963148;28;20465;-72
2022/01/29 10:48:06;;;;;;;1.60;1.20;;;9.60;98.20;;;;;;4968587;28;20485;-72
2022/01/29 10:50:33;;;;;;;1.70;1.30;;;9.60;98.20;;;;;;4963337;28;20470;-72
2022/01/29 10:53:27;;;;;;;1.63;1.20;;;9.60;98.20;;;;;;4967119;28;20579;-72
2022/01/29 10:56:00;;;;;;;1.67;1.20;;;9.60;98.20;;;;;;4953561;28;21167;-72
2022/01/29 10:58:27;;;;;;;1.63;1.20;;;9.70;98.20;;;;;;4975520;28;20504;-72
2022/01/29 11:01:15;;;;;;;1.60;1.20;;;9.70;98.20;;;;;;4953588;28;20473;-72
2022/01/29 11:03:42;;;;;;;1.60;1.20;;;9.70;98.20;;;;;;4976967;28;20573;-72
2022/01/29 11:06:11;;;;;;;1.70;1.30;;;9.60;98.20;;;;;;4957825;28;20484;-72
2022/01/29 11:08:41;;;;;;;1.60;1.20;;;9.70;98.20;;;;;;4976092;28;20490;-72
2022/01/29 11:11:09;;;;;;;1.60;1.13;;;9.60;98.20;;;;;;4953826;28;20469;-72
2022/01/29 11:13:37;;;;;;;1.70;1.20;;;9.60;98.20;;;;;;4977402;28;20881;-71
2022/01/29 11:16:05;;;;;;;1.60;1.20;;;9.60;98.20;;;;;;4949499;28;20470;-71
2022/01/29 11:18:33;;;;;;;1.60;1.20;;;9.60;98.20;;;;;;4955619;28;20916;-72
2022/01/29 11:21:01;;;;;;;1.60;1.10;;;9.60;98.20;;;;;;4955584;28;20476;-72
2022/01/29 11:23:29;;;;;;;1.60;1.20;;;9.60;98.20;;;;;;4976145;28;20843;-72
2022/01/29 11:25:59;;;;;;;1.70;1.27;;;9.50;98.20;;;;;;4950358;28;20476;-72
2022/01/29 11:28:27;;;;;;;1.70;1.37;;;9.50;98.20;;;;;;4977921;28;20552;-72
2022/01/29 11:31:20;;;;;;;1.60;1.20;;;9.50;98.20;;;;;;4954697;28;20471;-72
2022/01/29 11:34:22;;;;;;;1.63;1.10;;;9.50;98.20;;;;;;4973814;28;20473;-72
2022/01/29 11:37:05;;;;;;;1.67;1.20;;;9.60;98.20;;;;;;4961943;28;20491;-72
2022/01/29 11:39:34;;;;;;;1.63;1.20;;;9.60;98.20;;;;;;4968544;28;20548;-72
2022/01/29 11:42:31;;;;;;;1.60;1.20;;;9.70;98.20;;;;;;4961983;28;20619;-72
2022/01/29 11:45:06;;;;;;;1.70;1.20;;;9.70;98.20;;;;;;4962166;28;21099;-72
2022/01/29 11:47:49;;;;;;;1.60;1.10;;;9.80;98.20;;;;;;4963981;28;20856;-72
2022/01/29 11:50:45;;;;;;;1.60;1.10;;;9.80;98.20;;;;;;4963046;28;20985;-72
2022/01/29 11:53:13;;;;;;;1.67;1.20;;;9.90;98.20;;;;;;4968445;28;20479;-73
2022/01/29 11:55:41;;;;;;;1.60;1.10;;;9.90;98.20;;;;;;4963465;28;20462;-72
2022/01/29 11:58:26;;;;;;;1.70;1.20;;;9.90;98.20;;;;;;4948048;28;20510;-72
2022/01/29 12:00:54;;;;;;;1.63;1.20;;;9.90;98.20;;;;;;4946084;28;20477;-73
2022/01/29 12:03:53;;;;;;;1.63;1.20;;;9.90;98.20;;;;;;4977524;28;20478;-72
2022/01/29 12:06:23;;;;;;;1.60;1.10;;;9.90;98.20;;;;;;4958502;28;20516;-72
2022/01/29 12:09:06;;;;;;;1.67;1.20;;;10.00;98.20;;;;;;4976656;28;20516;-72
2022/01/29 12:11:33;;;;;;;1.60;1.10;;;10.10;98.20;;;;;;4959058;28;20489;-72
2022/01/29 12:14:26;;;;;;;1.63;1.17;;;10.20;98.20;;;;;;4974687;28;20906;-72
2022/01/29 12:16:55;;;;;;;1.60;1.10;;;10.30;98.20;;;;;;4962836;28;20491;-72
2022/01/29 12:19:41;;;;;;;1.60;1.20;;;10.40;98.20;;;;;;4973016;28;20493;-72
2022/01/29 12:22:10;;;;;;;1.67;1.10;;;10.50;98.20;;;;;;4964168;28;20511;-72
2022/01/29 12:24:38;;;;;;;1.70;1.20;;;10.50;98.20;;;;;;4965511;28;20569;-72
2022/01/29 12:27:05;;;;;;;1.63;1.10;;;10.60;98.20;;;;;;4962808;28;21031;-72
2022/01/29 12:29:34;;;;;;;1.60;1.10;;;10.60;98.20;;;;;;4968835;28;20512;-72
2022/01/29 12:32:01;;;;;;;1.70;1.20;;;10.60;98.20;;;;;;4961009;28;21153;-72
2022/01/29 12:34:28;;;;;;;1.63;1.10;;;10.60;98.20;;;;;;4970728;28;20469;-72
2022/01/29 12:37:09;;;;;;;1.63;1.10;;;10.60;98.20;;;;;;4963828;28;21156;-72
2022/01/29 12:39:37;;;;;;;1.60;1.20;;;10.70;98.20;;;;;;4969737;28;20544;-72
2022/01/29 12:42:11;;;;;;;1.70;1.10;;;10.70;98.20;;;;;;4965025;28;21020;-72
2022/01/29 12:44:39;;;;;;;1.60;1.10;;;10.70;98.20;;;;;;4968592;28;20610;-72
2022/01/29 12:47:07;;;;;;;1.70;1.20;;;10.70;98.20;;;;;;4962802;28;21047;-73
2022/01/29 12:49:44;;;;;;;1.60;1.10;;;10.70;98.20;;;;;;4968326;28;21031;-72
2022/01/29 12:52:18;;;;;;;1.70;1.30;;;10.80;98.20;;;;;;4963699;28;20554;-72
2022/01/29 12:54:52;;;;;;;1.70;1.20;;;10.80;98.20;;;;;;4967085;28;20550;-72
2022/01/29 12:57:19;;;;;;;1.80;1.57;;;10.90;98.20;;;;;;4965596;28;20492;-72
2022/01/29 12:59:48;;;;;;;1.70;1.30;;;10.90;98.20;;;;;;4968169;28;20516;-72
2022/01/29 13:02:15;;;;;;;1.60;1.10;;;10.80;98.20;;;;;;4948241;28;20486;-72
2022/01/29 13:04:46;;;;;;;1.63;1.10;;;10.80;98.20;;;;;;4961519;28;20478;-72
2022/01/29 13:07:15;;;;;;;1.60;1.10;;;10.80;98.20;;;;;;4964520;28;20485;-72
2022/01/29 13:09:41;;;;;;;1.70;1.23;;;10.70;98.20;;;;;;4970274;28;20466;-72
2022/01/29 13:12:11;;;;;;;1.63;1.20;;;10.70;98.20;;;;;;4951981;28;20495;-72
2022/01/29 13:14:39;;;;;;;1.60;1.10;;;10.70;98.20;;;;;;4959382;28;20473;-72